sensor_id;sensor_type;location;lat;lon;timestamp;pressure;altitude;pressure_sealevel;temperature;humidity
18784;BME280;9520;50.954;6.968;2024-03-07T00:00:06;101842.53;;;15.52;46.24
18784;BME280;9520;50.954;6.968;2024-03-07T00:00:35;101849.56;;;15.55;46.18
18784;BME280;9520;50.954;6.968;2024-03-07T00:00:58;101845.13;;;15.55;45.96
18784;BME280;9520;50.954;6.968;2024-03-07T00:01:21;101840.69;;;15.56;46.16
18784;BME280;9520;50.954;6.968;2024-03-07T00:01:43;101829.31;;;15.46;46.20
18784;BME280;9520;50.954;6.968;2024-03-07T00:02:05;101846.09;;;15.53;46.18
18784;BME280;9520;50.954;6.968;2024-03-07T00:02:27;101845.19;;;15.54;46.11
18784;BME280;9520;50.954;6.968;2024-03-07T00:02:50;101814.47;;;15.33;46.21
18784;BME280;9520;50.954;6.968;2024-03-07T00:03:13;101842.53;;;15.52;46.19
18784;BME280;9520;50.954;6.968;2024-03-07T00:03:35;101842.56;;;15.51;46.29
18784;BME280;9520;50.954;6.968;2024-03-07T00:03:57;101839.91;;;15.51;46.20
18784;BME280;9520;50.954;6.968;2024-03-07T00:04:18;101826.75;;;15.40;46.19
18784;BME280;9520;50.954;6.968;2024-03-07T00:04:40;101836.31;;;15.50;46.15
18784;BME280;9520;50.954;6.968;2024-03-07T00:05:02;101845.19;;;15.54;46.27
18784;BME280;9520;50.954;6.968;2024-03-07T00:05:25;101833.72;;;15.49;46.09
18784;BME280;9520;50.954;6.968;2024-03-07T00:05:47;101838.97;;;15.50;46.05
18784;BME280;9520;50.954;6.968;2024-03-07T00:06:08;101846.06;;;15.50;46.18
18784;BME280;9520;50.954;6.968;2024-03-07T00:06:30;101838.19;;;15.45;46.14
18784;BME280;9520;50.954;6.968;2024-03-07T00:06:52;101818.03;;;15.32;46.23
18784;BME280;9520;50.954;6.968;2024-03-07T00:07:15;101840.75;;;15.50;46.20
18784;BME280;9520;50.954;6.968;2024-03-07T00:07:37;101837.22;;;15.49;46.07
18784;BME280;9520;50.954;6.968;2024-03-07T00:07:59;101841.63;;;15.50;46.11
18784;BME280;9520;50.954;6.968;2024-03-07T00:08:20;101845.19;;;15.52;46.11
18784;BME280;9520;50.954;6.968;2024-03-07T00:08:42;101847.84;;;15.52;45.96
18784;BME280;9520;50.954;6.968;2024-03-07T00:09:04;101845.19;;;15.52;45.94
18784;BME280;9520;50.954;6.968;2024-03-07T00:09:27;101852.28;;;15.53;46.11
18784;BME280;9520;50.954;6.968;2024-03-07T00:09:49;101846.03;;;15.54;46.10
18784;BME280;9520;50.954;6.968;2024-03-07T00:10:12;101837.25;;;15.48;46.04
18784;BME280;9520;50.954;6.968;2024-03-07T00:10:34;101841.69;;;15.47;46.11
18784;BME280;9520;50.954;6.968;2024-03-07T00:10:57;101840.84;;;15.45;46.13
18784;BME280;9520;50.954;6.968;2024-03-07T00:11:20;101845.28;;;15.45;45.98
18784;BME280;9520;50.954;6.968;2024-03-07T00:11:42;101842.69;;;15.42;46.21
18784;BME280;9520;50.954;6.968;2024-03-07T00:12:04;101842.69;;;15.42;46.27
18784;BME280;9520;50.954;6.968;2024-03-07T00:12:27;101848.00;;;15.40;46.03
18784;BME280;9520;50.954;6.968;2024-03-07T00:12:48;101852.41;;;15.43;46.02
18784;BME280;9520;50.954;6.968;2024-03-07T00:13:11;101843.56;;;15.42;45.93
18784;BME280;9520;50.954;6.968;2024-03-07T00:13:34;101840.84;;;15.45;45.96
18784;BME280;9520;50.954;6.968;2024-03-07T00:13:58;101843.50;;;15.45;46.15
18784;BME280;9520;50.954;6.968;2024-03-07T00:14:21;101845.28;;;15.45;46.10
18784;BME280;9520;50.954;6.968;2024-03-07T00:14:42;101841.78;;;15.41;46.06
18784;BME280;9520;50.954;6.968;2024-03-07T00:15:06;101840.91;;;15.42;46.04
18784;BME280;9520;50.954;6.968;2024-03-07T00:15:28;101848.00;;;15.40;45.99
18784;BME280;9520;50.954;6.968;2024-03-07T00:15:51;101824.25;;;15.30;46.18
18784;BME280;9520;50.954;6.968;2024-03-07T00:16:13;101846.22;;;15.42;46.19
18784;BME280;9520;50.954;6.968;2024-03-07T00:16:34;101831.25;;;15.35;46.20
18784;BME280;9520;50.954;6.968;2024-03-07T00:16:56;101848.00;;;15.40;46.19
18784;BME280;9520;50.954;6.968;2024-03-07T00:17:18;101848.06;;;15.39;46.10
18784;BME280;9520;50.954;6.968;2024-03-07T00:17:41;101852.50;;;15.38;46.22
18784;BME280;9520;50.954;6.968;2024-03-07T00:18:03;101851.56;;;15.39;46.22
18784;BME280;9520;50.954;6.968;2024-03-07T00:18:27;101848.97;;;15.36;46.23
18784;BME280;9520;50.954;6.968;2024-03-07T00:18:49;101848.97;;;15.35;46.24
18784;BME280;9520;50.954;6.968;2024-03-07T00:19:13;101848.09;;;15.36;46.19
18784;BME280;9520;50.954;6.968;2024-03-07T00:19:36;101855.19;;;15.35;46.30
18784;BME280;9520;50.954;6.968;2024-03-07T00:19:57;101852.53;;;15.35;46.32
18784;BME280;9520;50.954;6.968;2024-03-07T00:20:19;101858.78;;;15.33;46.33
18784;BME280;9520;50.954;6.968;2024-03-07T00:20:42;101856.13;;;15.31;46.28
18784;BME280;9520;50.954;6.968;2024-03-07T00:21:05;101857.03;;;15.30;46.32
18784;BME280;9520;50.954;6.968;2024-03-07T00:21:27;101853.47;;;15.31;46.29
18784;BME280;9520;50.954;6.968;2024-03-07T00:21:48;101854.34;;;15.33;46.26
18784;BME280;9520;50.954;6.968;2024-03-07T00:22:10;101858.72;;;15.34;46.11
18784;BME280;9520;50.954;6.968;2024-03-07T00:22:32;101824.44;;;15.19;46.21
18784;BME280;9520;50.954;6.968;2024-03-07T00:22:53;101850.81;;;15.31;46.19
18784;BME280;9520;50.954;6.968;2024-03-07T00:23:16;101857.84;;;15.35;46.15
18784;BME280;9520;50.954;6.968;2024-03-07T00:23:38;101854.28;;;15.36;46.15
18784;BME280;9520;50.954;6.968;2024-03-07T00:24:00;101852.50;;;15.37;46.19
18784;BME280;9520;50.954;6.968;2024-03-07T00:24:22;101855.16;;;15.37;46.18
18784;BME280;9520;50.954;6.968;2024-03-07T00:24:44;101856.06;;;15.36;46.16
18784;BME280;9520;50.954;6.968;2024-03-07T00:25:09;101850.72;;;15.37;46.16
18784;BME280;9520;50.954;6.968;2024-03-07T00:25:32;101843.81;;;15.26;46.32
18784;BME280;9520;50.954;6.968;2024-03-07T00:25:54;101856.13;;;15.33;46.04
18784;BME280;9520;50.954;6.968;2024-03-07T00:26:16;101842.09;;;15.23;46.11
18784;BME280;9520;50.954;6.968;2024-03-07T00:26:38;101857.91;;;15.32;46.04
18784;BME280;9520;50.954;6.968;2024-03-07T00:26:59;101852.59;;;15.32;46.07
18784;BME280;9520;50.954;6.968;2024-03-07T00:27:21;101852.66;;;15.26;46.12
18784;BME280;9520;50.954;6.968;2024-03-07T00:27:44;101838.56;;;15.23;46.14
18784;BME280;9520;50.954;6.968;2024-03-07T00:28:07;101852.59;;;15.31;46.29
18784;BME280;9520;50.954;6.968;2024-03-07T00:28:29;101857.03;;;15.30;46.20
18784;BME280;9520;50.954;6.968;2024-03-07T00:39:39;101848.66;;;14.99;46.67
18784;BME280;9520;50.954;6.968;2024-03-07T00:40:01;101856.59;;;15.01;46.62
18784;BME280;9520;50.954;6.968;2024-03-07T00:40:24;101853.09;;;14.99;46.57
18784;BME280;9520;50.954;6.968;2024-03-07T00:40:45;101848.66;;;14.99;46.57
18784;BME280;9520;50.954;6.968;2024-03-07T00:41:08;101853.09;;;14.99;46.45
18784;BME280;9520;50.954;6.968;2024-03-07T00:41:31;101853.09;;;14.99;46.57
18784;BME280;9520;50.954;6.968;2024-03-07T00:41:53;101853.09;;;14.99;46.59
18784;BME280;9520;50.954;6.968;2024-03-07T00:42:14;101843.38;;;14.98;46.79
18784;BME280;9520;50.954;6.968;2024-03-07T00:42:38;101850.38;;;15.03;46.44
18784;BME280;9520;50.954;6.968;2024-03-07T00:43:00;101844.16;;;15.04;46.39
18784;BME280;9520;50.954;6.968;2024-03-07T00:43:21;101850.38;;;15.03;46.47
18784;BME280;9520;50.954;6.968;2024-03-07T00:43:43;101854.81;;;15.03;46.65
18784;BME280;9520;50.954;6.968;2024-03-07T00:44:05;101829.28;;;14.93;46.53
18784;BME280;9520;50.954;6.968;2024-03-07T00:44:27;101847.66;;;15.05;46.38
18784;BME280;9520;50.954;6.968;2024-03-07T00:44:49;101854.75;;;15.06;46.33
18784;BME280;9520;50.954;6.968;2024-03-07T00:45:12;101847.66;;;15.08;46.18
18784;BME280;9520;50.954;6.968;2024-03-07T00:45:33;101848.53;;;15.08;46.15
18784;BME280;9520;50.954;6.968;2024-03-07T00:45:55;101848.53;;;15.07;46.26
18784;BME280;9520;50.954;6.968;2024-03-07T00:46:17;101846.78;;;15.06;46.37
18784;BME280;9520;50.954;6.968;2024-03-07T00:46:39;101840.72;;;14.98;46.29
18784;BME280;9520;50.954;6.968;2024-03-07T00:47:00;101831.84;;;14.99;46.38
18784;BME280;9520;50.954;6.968;2024-03-07T00:47:24;101856.50;;;15.07;46.25
18784;BME280;9520;50.954;6.968;2024-03-07T00:47:45;101847.66;;;15.05;46.29
18784;BME280;9520;50.954;6.968;2024-03-07T00:48:07;101843.25;;;15.05;46.30
18784;BME280;9520;50.954;6.968;2024-03-07T00:48:29;101848.53;;;15.07;46.14
18784;BME280;9520;50.954;6.968;2024-03-07T00:48:52;101845.00;;;15.08;46.19
18784;BME280;9520;50.954;6.968;2024-03-07T00:49:13;101840.56;;;15.08;46.21
18784;BME280;9520;50.954;6.968;2024-03-07T00:49:35;101835.25;;;15.08;46.18
18784;BME280;9520;50.954;6.968;2024-03-07T00:49:57;101831.84;;;14.99;46.09
18784;BME280;9520;50.954;6.968;2024-03-07T00:50:19;101843.16;;;15.10;45.97
18784;BME280;9520;50.954;6.968;2024-03-07T00:50:42;101840.50;;;15.10;46.09
18784;BME280;9520;50.954;6.968;2024-03-07T00:51:04;101844.09;;;15.09;46.03
18784;BME280;9520;50.954;6.968;2024-03-07T00:51:26;101831.78;;;15.03;46.13
18784;BME280;9520;50.954;6.968;2024-03-07T00:51:48;101845.81;;;15.10;46.18
18784;BME280;9520;50.954;6.968;2024-03-07T00:52:09;101838.81;;;15.06;46.15
18784;BME280;9520;50.954;6.968;2024-03-07T00:52:31;101844.03;;;15.12;46.14
18784;BME280;9520;50.954;6.968;2024-03-07T00:52:54;101845.81;;;15.10;45.98
18784;BME280;9520;50.954;6.968;2024-03-07T00:53:16;101841.38;;;15.12;46.12
18784;BME280;9520;50.954;6.968;2024-03-07T00:53:37;101840.50;;;15.10;46.00
18784;BME280;9520;50.954;6.968;2024-03-07T00:53:59;101843.22;;;15.08;46.01
18784;BME280;9520;50.954;6.968;2024-03-07T00:54:21;101831.78;;;15.02;46.19
18784;BME280;9520;50.954;6.968;2024-03-07T00:54:45;101843.22;;;15.08;46.16
18784;BME280;9520;50.954;6.968;2024-03-07T00:55:08;101835.25;;;15.07;46.18
18784;BME280;9520;50.954;6.968;2024-03-07T00:55:30;101841.47;;;15.06;46.15
18784;BME280;9520;50.954;6.968;2024-03-07T00:55:52;101844.13;;;15.06;46.24
18784;BME280;9520;50.954;6.968;2024-03-07T00:56:14;101846.78;;;15.06;46.38
18784;BME280;9520;50.954;6.968;2024-03-07T00:56:36;101840.56;;;15.07;46.26
18784;BME280;9520;50.954;6.968;2024-03-07T00:56:58;101843.22;;;15.07;46.30
18784;BME280;9520;50.954;6.968;2024-03-07T00:57:21;101845.88;;;15.07;46.28
18784;BME280;9520;50.954;6.968;2024-03-07T00:57:42;101848.53;;;15.07;46.22
18784;BME280;9520;50.954;6.968;2024-03-07T00:58:04;101840.56;;;15.07;46.24
18784;BME280;9520;50.954;6.968;2024-03-07T00:58:26;101840.56;;;15.07;46.21
18784;BME280;9520;50.954;6.968;2024-03-07T00:58:49;101839.69;;;15.08;46.25
18784;BME280;9520;50.954;6.968;2024-03-07T00:59:11;101839.69;;;15.06;46.38
18784;BME280;9520;50.954;6.968;2024-03-07T00:59:34;101843.31;;;15.01;46.33
18784;BME280;9520;50.954;6.968;2024-03-07T00:59:56;101839.69;;;15.05;46.27
18784;BME280;9520;50.954;6.968;2024-03-07T01:00:18;101843.25;;;15.05;46.25
18784;BME280;9520;50.954;6.968;2024-03-07T01:00:42;101829.13;;;15.00;46.12
18784;BME280;9520;50.954;6.968;2024-03-07T01:01:04;101835.25;;;15.05;46.22
18784;BME280;9520;50.954;6.968;2024-03-07T01:01:27;101842.34;;;15.05;46.24
18784;BME280;9520;50.954;6.968;2024-03-07T01:01:48;101843.25;;;15.05;46.33
18784;BME280;9520;50.954;6.968;2024-03-07T01:02:10;101852.09;;;15.06;46.30
18784;BME280;9520;50.954;6.968;2024-03-07T01:02:32;101845.00;;;15.06;46.49
18784;BME280;9520;50.954;6.968;2024-03-07T01:02:55;101841.47;;;15.06;46.28
18784;BME280;9520;50.954;6.968;2024-03-07T01:03:18;101823.88;;;14.97;46.48
18784;BME280;9520;50.954;6.968;2024-03-07T01:03:40;101833.56;;;15.03;46.38
18784;BME280;9520;50.954;6.968;2024-03-07T01:04:02;101839.75;;;15.03;46.45
18784;BME280;9520;50.954;6.968;2024-03-07T01:04:24;101842.41;;;15.02;46.44
18784;BME280;9520;50.954;6.968;2024-03-07T01:04:46;101838.00;;;15.01;46.25
18784;BME280;9520;50.954;6.968;2024-03-07T01:05:09;101837.97;;;15.04;46.32
18784;BME280;9520;50.954;6.968;2024-03-07T01:05:33;101830.00;;;15.02;46.30
18784;BME280;9520;50.954;6.968;2024-03-07T01:05:55;101836.22;;;15.01;46.47
18784;BME280;9520;50.954;6.968;2024-03-07T01:06:17;101836.22;;;15.03;46.52
18784;BME280;9520;50.954;6.968;2024-03-07T01:06:38;101838.84;;;15.04;46.52
18784;BME280;9520;50.954;6.968;2024-03-07T01:07:02;101837.97;;;15.04;46.32
18784;BME280;9520;50.954;6.968;2024-03-07T01:07:25;101840.63;;;15.04;46.36
18784;BME280;9520;50.954;6.968;2024-03-07T01:07:47;101843.28;;;15.04;46.33
18784;BME280;9520;50.954;6.968;2024-03-07T01:08:08;101843.28;;;15.02;46.38
18784;BME280;9520;50.954;6.968;2024-03-07T01:08:30;101838.88;;;15.00;46.45
18784;BME280;9520;50.954;6.968;2024-03-07T01:08:53;101837.09;;;15.00;46.50
18784;BME280;9520;50.954;6.968;2024-03-07T01:09:16;101832.72;;;14.99;46.51
18784;BME280;9520;50.954;6.968;2024-03-07T01:09:40;101837.09;;;15.00;46.20
18784;BME280;9520;50.954;6.968;2024-03-07T01:10:04;101836.22;;;15.01;46.32
18784;BME280;9520;50.954;6.968;2024-03-07T01:10:27;101830.88;;;15.03;46.27
18784;BME280;9520;50.954;6.968;2024-03-07T01:10:49;101838.88;;;15.03;46.27
18784;BME280;9520;50.954;6.968;2024-03-07T01:11:12;101841.53;;;15.03;46.20
18784;BME280;9520;50.954;6.968;2024-03-07T01:11:34;101829.94;;;15.05;46.15
18784;BME280;9520;50.954;6.968;2024-03-07T01:11:56;101834.38;;;15.06;46.06
18784;BME280;9520;50.954;6.968;2024-03-07T01:12:18;101834.38;;;15.05;46.21
18784;BME280;9520;50.954;6.968;2024-03-07T01:12:41;101833.50;;;15.06;46.14
18784;BME280;9520;50.954;6.968;2024-03-07T01:13:04;101837.03;;;15.05;46.02
18784;BME280;9520;50.954;6.968;2024-03-07T01:13:29;101836.22;;;15.03;46.17
18784;BME280;9520;50.954;6.968;2024-03-07T01:13:51;101832.66;;;15.04;46.27
18784;BME280;9520;50.954;6.968;2024-03-07T01:14:13;101833.56;;;15.03;46.26
18784;BME280;9520;50.954;6.968;2024-03-07T01:14:35;101831.84;;;14.99;46.25
18784;BME280;9520;50.954;6.968;2024-03-07T01:14:57;101827.44;;;14.95;46.32
18784;BME280;9520;50.954;6.968;2024-03-07T01:15:20;101837.19;;;14.96;46.39
18784;BME280;9520;50.954;6.968;2024-03-07T01:15:43;101835.34;;;15.01;46.35
18784;BME280;9520;50.954;6.968;2024-03-07T01:16:05;101830.97;;;14.98;46.34
18784;BME280;9520;50.954;6.968;2024-03-07T01:16:27;101835.34;;;15.01;46.25
18784;BME280;9520;50.954;6.968;2024-03-07T01:16:49;101830.91;;;15.00;46.26
18784;BME280;9520;50.954;6.968;2024-03-07T01:17:10;101833.56;;;15.00;46.14
18784;BME280;9520;50.954;6.968;2024-03-07T01:17:32;101834.50;;;14.99;46.13
18784;BME280;9520;50.954;6.968;2024-03-07T01:17:55;101831.84;;;14.99;46.25
18784;BME280;9520;50.954;6.968;2024-03-07T01:18:17;101834.50;;;14.99;46.26
18784;BME280;9520;50.954;6.968;2024-03-07T01:18:39;101838.94;;;14.98;46.29
18784;BME280;9520;50.954;6.968;2024-03-07T01:19:01;101832.75;;;14.98;46.25
18784;BME280;9520;50.954;6.968;2024-03-07T01:19:23;101826.53;;;14.99;46.21
18784;BME280;9520;50.954;6.968;2024-03-07T01:19:46;101837.16;;;14.97;46.11
18784;BME280;9520;50.954;6.968;2024-03-07T01:20:08;101826.53;;;14.97;46.25
18784;BME280;9520;50.954;6.968;2024-03-07T01:20:30;101830.09;;;14.95;46.23
18784;BME280;9520;50.954;6.968;2024-03-07T01:20:52;101834.59;;;14.93;46.33
18784;BME280;9520;50.954;6.968;2024-03-07T01:21:14;101826.63;;;14.93;46.44
18784;BME280;9520;50.954;6.968;2024-03-07T01:21:36;101831.94;;;14.91;46.25
18784;BME280;9520;50.954;6.968;2024-03-07T01:21:59;101809.13;;;14.78;46.29
18784;BME280;9520;50.954;6.968;2024-03-07T01:22:21;101830.22;;;14.89;46.30
18784;BME280;9520;50.954;6.968;2024-03-07T01:22:43;101836.38;;;14.91;46.21
18784;BME280;9520;50.954;6.968;2024-03-07T01:23:05;101832.88;;;14.89;46.18
18784;BME280;9520;50.954;6.968;2024-03-07T01:23:26;101838.19;;;14.89;46.35
18784;BME280;9520;50.954;6.968;2024-03-07T01:23:49;101808.28;;;14.75;46.46
18784;BME280;9520;50.954;6.968;2024-03-07T01:24:12;101831.97;;;14.90;46.61
18784;BME280;9520;50.954;6.968;2024-03-07T01:24:34;101828.50;;;14.85;46.31
18784;BME280;9520;50.954;6.968;2024-03-07T01:24:56;101836.44;;;14.88;46.46
18784;BME280;9520;50.954;6.968;2024-03-07T01:35:11;101822.66;;;14.60;46.57
18784;BME280;9520;50.954;6.968;2024-03-07T01:37:14;101823.50;;;14.63;46.67
18784;BME280;9520;50.954;6.968;2024-03-07T01:41:10;101816.41;;;14.62;46.67
18784;BME280;9520;50.954;6.968;2024-03-07T01:42:58;101811.97;;;14.64;46.86
18784;BME280;9520;50.954;6.968;2024-03-07T01:46:27;101815.53;;;14.60;46.56
18784;BME280;9520;50.954;6.968;2024-03-07T01:47:33;101809.34;;;14.63;46.56
18784;BME280;9520;50.954;6.968;2024-03-07T01:48:02;101811.09;;;14.62;46.65
18784;BME280;9520;50.954;6.968;2024-03-07T01:48:26;101774.25;;;14.38;46.62
18784;BME280;9520;50.954;6.968;2024-03-07T01:48:50;101789.16;;;14.48;46.48
18784;BME280;9520;50.954;6.968;2024-03-07T01:49:13;101812.88;;;14.62;46.44
18784;BME280;9520;50.954;6.968;2024-03-07T01:49:34;101791.84;;;14.48;46.37
18784;BME280;9520;50.954;6.968;2024-03-07T01:49:56;101814.72;;;14.55;46.53
18784;BME280;9520;50.954;6.968;2024-03-07T01:50:19;101812.88;;;14.60;46.48
18784;BME280;9520;50.954;6.968;2024-03-07T01:50:41;101798.84;;;14.54;46.50
18784;BME280;9520;50.954;6.968;2024-03-07T01:51:04;101805.06;;;14.51;46.44
18784;BME280;9520;50.954;6.968;2024-03-07T01:51:26;101791.75;;;14.53;46.55
18784;BME280;9520;50.954;6.968;2024-03-07T01:51:48;101806.66;;;14.64;46.41
18784;BME280;9520;50.954;6.968;2024-03-07T01:52:10;101809.28;;;14.66;46.41
18784;BME280;9520;50.954;6.968;2024-03-07T01:52:33;101810.19;;;14.65;46.36
18784;BME280;9520;50.954;6.968;2024-03-07T01:52:56;101809.34;;;14.63;46.40
18784;BME280;9520;50.954;6.968;2024-03-07T01:53:18;101804.00;;;14.64;46.25
18784;BME280;9520;50.954;6.968;2024-03-07T01:53:40;101816.34;;;14.67;46.21
18784;BME280;9520;50.954;6.968;2024-03-07T01:54:02;101803.94;;;14.67;46.33
18784;BME280;9520;50.954;6.968;2024-03-07T01:54:25;101755.69;;;14.40;46.25
18784;BME280;9520;50.954;6.968;2024-03-07T01:54:49;101809.25;;;14.67;46.18
18784;BME280;9520;50.954;6.968;2024-03-07T01:55:11;101793.53;;;14.52;46.17
18784;BME280;9520;50.954;6.968;2024-03-07T01:55:35;101803.19;;;14.58;46.29
18784;BME280;9520;50.954;6.968;2024-03-07T01:55:59;101786.56;;;14.45;46.27
18784;BME280;9520;50.954;6.968;2024-03-07T01:56:21;101804.09;;;14.57;46.22
18784;BME280;9520;50.954;6.968;2024-03-07T01:56:43;101800.63;;;14.52;46.22
18784;BME280;9520;50.954;6.968;2024-03-07T01:57:07;101803.25;;;14.55;46.26
18784;BME280;9520;50.954;6.968;2024-03-07T01:57:29;101801.44;;;14.55;46.37
18784;BME280;9520;50.954;6.968;2024-03-07T01:57:51;101795.31;;;14.53;46.30
18784;BME280;9520;50.954;6.968;2024-03-07T01:58:14;101797.00;;;14.57;46.22
18784;BME280;9520;50.954;6.968;2024-03-07T01:58:40;101797.06;;;14.54;46.10
18784;BME280;9520;50.954;6.968;2024-03-07T01:59:03;101784.75;;;14.49;46.18
18784;BME280;9520;50.954;6.968;2024-03-07T01:59:26;101793.47;;;14.55;46.05
18784;BME280;9520;50.954;6.968;2024-03-07T01:59:51;101797.00;;;14.57;46.09
18784;BME280;9520;50.954;6.968;2024-03-07T02:00:14;101798.78;;;14.57;46.13
18784;BME280;9520;50.954;6.968;2024-03-07T02:00:35;101806.81;;;14.54;46.27
18784;BME280;9520;50.954;6.968;2024-03-07T02:00:58;101798.84;;;14.52;46.34
18784;BME280;9520;50.954;6.968;2024-03-07T02:01:21;101802.41;;;14.51;46.50
18784;BME280;9520;50.954;6.968;2024-03-07T02:01:42;101790.94;;;14.49;46.22
18784;BME280;9520;50.954;6.968;2024-03-07T02:02:04;101792.66;;;14.52;46.31
18784;BME280;9520;50.954;6.968;2024-03-07T02:02:26;101794.50;;;14.47;46.34
18784;BME280;9520;50.954;6.968;2024-03-07T02:02:48;101792.78;;;14.43;46.36
18784;BME280;9520;50.954;6.968;2024-03-07T02:03:11;101798.09;;;14.43;46.21
18784;BME280;9520;50.954;6.968;2024-03-07T02:03:34;101797.22;;;14.42;46.23
18784;BME280;9520;50.954;6.968;2024-03-07T02:03:57;101794.56;;;14.42;46.39
18784;BME280;9520;50.954;6.968;2024-03-07T02:04:19;101791.03;;;14.42;46.54
18784;BME280;9520;50.954;6.968;2024-03-07T02:04:41;101795.44;;;14.44;46.61
18784;BME280;9520;50.954;6.968;2024-03-07T02:05:04;101788.41;;;14.40;46.46
18784;BME280;9520;50.954;6.968;2024-03-07T02:05:28;101794.47;;;14.48;46.33
18784;BME280;9520;50.954;6.968;2024-03-07T02:05:50;101797.13;;;14.48;46.44
18784;BME280;9520;50.954;6.968;2024-03-07T02:06:12;101792.78;;;14.44;46.34
18784;BME280;9520;50.954;6.968;2024-03-07T02:06:34;101776.94;;;14.34;46.25
18784;BME280;9520;50.954;6.968;2024-03-07T02:06:56;101793.72;;;14.40;46.24
18784;BME280;9520;50.954;6.968;2024-03-07T02:07:20;101786.66;;;14.39;46.28
18784;BME280;9520;50.954;6.968;2024-03-07T02:07:43;101794.56;;;14.42;46.18
18784;BME280;9520;50.954;6.968;2024-03-07T02:08:05;101795.44;;;14.44;46.15
18784;BME280;9520;50.954;6.968;2024-03-07T02:08:26;101788.31;;;14.46;46.08
18784;BME280;9520;50.954;6.968;2024-03-07T02:08:48;101793.63;;;14.46;46.29
18784;BME280;9520;50.954;6.968;2024-03-07T02:09:10;101796.25;;;14.46;46.31
18784;BME280;9520;50.954;6.968;2024-03-07T02:09:32;101789.22;;;14.45;46.34
18784;BME280;9520;50.954;6.968;2024-03-07T02:09:59;101771.66;;;14.32;46.40
18784;BME280;9520;50.954;6.968;2024-03-07T02:10:21;101792.78;;;14.43;46.47
18784;BME280;9520;50.954;6.968;2024-03-07T02:10:43;101793.66;;;14.43;46.46
18784;BME280;9520;50.954;6.968;2024-03-07T02:11:04;101788.34;;;14.43;46.49
18784;BME280;9520;50.954;6.968;2024-03-07T02:11:27;101794.56;;;14.42;46.35
18784;BME280;9520;50.954;6.968;2024-03-07T02:11:49;101790.13;;;14.44;46.32
18784;BME280;9520;50.954;6.968;2024-03-07T02:12:11;101791.91;;;14.42;46.41
18784;BME280;9520;50.954;6.968;2024-03-07T02:12:33;101787.53;;;14.40;46.47
18784;BME280;9520;50.954;6.968;2024-03-07T02:12:54;101783.09;;;14.40;46.53
18784;BME280;9520;50.954;6.968;2024-03-07T02:13:17;101790.19;;;14.37;46.51
18784;BME280;9520;50.954;6.968;2024-03-07T02:13:39;101784.88;;;14.38;46.31
18784;BME280;9520;50.954;6.968;2024-03-07T02:14:01;101778.72;;;14.35;46.45
18784;BME280;9520;50.954;6.968;2024-03-07T02:14:24;101779.56;;;14.38;46.44
18784;BME280;9520;50.954;6.968;2024-03-07T02:14:45;101784.84;;;14.41;46.32
18784;BME280;9520;50.954;6.968;2024-03-07T02:15:09;101783.09;;;14.40;46.47
18784;BME280;9520;50.954;6.968;2024-03-07T02:15:30;101757.59;;;14.25;46.38
18784;BME280;9520;50.954;6.968;2024-03-07T02:15:52;101787.47;;;14.43;46.23
18784;BME280;9520;50.954;6.968;2024-03-07T02:16:13;101785.69;;;14.43;46.36
18784;BME280;9520;50.954;6.968;2024-03-07T02:16:35;101786.59;;;14.42;46.25
18784;BME280;9520;50.954;6.968;2024-03-07T02:16:57;101790.19;;;14.40;46.32
18784;BME280;9520;50.954;6.968;2024-03-07T02:17:21;101784.00;;;14.39;46.25
18784;BME280;9520;50.954;6.968;2024-03-07T02:17:42;101785.75;;;14.39;46.23
18784;BME280;9520;50.954;6.968;2024-03-07T02:18:05;101781.38;;;14.33;46.24
18784;BME280;9520;50.954;6.968;2024-03-07T02:18:27;101776.13;;;14.30;46.32
18784;BME280;9520;50.954;6.968;2024-03-07T02:18:50;101779.59;;;14.34;46.39
18784;BME280;9520;50.954;6.968;2024-03-07T02:19:14;101781.34;;;14.36;46.26
18784;BME280;9520;50.954;6.968;2024-03-07T02:19:36;101786.66;;;14.36;46.44
18784;BME280;9520;50.954;6.968;2024-03-07T02:19:58;101771.69;;;14.31;46.34
18784;BME280;9520;50.954;6.968;2024-03-07T02:20:20;101757.63;;;14.21;46.42
18784;BME280;9520;50.954;6.968;2024-03-07T02:20:44;101781.34;;;14.36;46.41
18784;BME280;9520;50.954;6.968;2024-03-07T02:21:06;101776.03;;;14.36;46.33
18784;BME280;9520;50.954;6.968;2024-03-07T02:21:30;101776.94;;;14.35;46.46
18784;BME280;9520;50.954;6.968;2024-03-07T02:21:52;101784.00;;;14.38;46.42
18784;BME280;9520;50.954;6.968;2024-03-07T02:22:13;101787.53;;;14.38;46.45
18784;BME280;9520;50.954;6.968;2024-03-07T02:22:35;101768.13;;;14.32;46.44
18784;BME280;9520;50.954;6.968;2024-03-07T02:22:57;101782.22;;;14.38;46.32
18784;BME280;9520;50.954;6.968;2024-03-07T02:23:19;101775.19;;;14.31;46.26
18784;BME280;9520;50.954;6.968;2024-03-07T02:23:41;101761.09;;;14.26;46.17
18784;BME280;9520;50.954;6.968;2024-03-07T02:24:03;101777.78;;;14.36;46.41
18784;BME280;9520;50.954;6.968;2024-03-07T02:24:25;101768.16;;;14.30;46.18
18784;BME280;9520;50.954;6.968;2024-03-07T02:24:47;101773.41;;;14.35;46.21
18784;BME280;9520;50.954;6.968;2024-03-07T02:25:09;101771.63;;;14.34;46.21
18784;BME280;9520;50.954;6.968;2024-03-07T02:25:32;101777.81;;;14.34;46.27
18784;BME280;9520;50.954;6.968;2024-03-07T02:25:58;101776.94;;;14.35;45.97
18784;BME280;9520;50.954;6.968;2024-03-07T02:26:20;101776.94;;;14.37;46.03
18784;BME280;9520;50.954;6.968;2024-03-07T02:26:42;101776.94;;;14.35;46.17
18784;BME280;9520;50.954;6.968;2024-03-07T02:27:04;101773.41;;;14.35;46.24
18784;BME280;9520;50.954;6.968;2024-03-07T02:27:26;101772.53;;;14.34;46.35
18784;BME280;9520;50.954;6.968;2024-03-07T02:27:48;101778.72;;;14.35;46.07
18784;BME280;9520;50.954;6.968;2024-03-07T02:28:10;101776.03;;;14.36;46.17
18784;BME280;9520;50.954;6.968;2024-03-07T02:28:32;101778.72;;;14.35;46.27
18784;BME280;9520;50.954;6.968;2024-03-07T02:28:53;101764.56;;;14.33;46.26
18784;BME280;9520;50.954;6.968;2024-03-07T02:29:15;101754.06;;;14.23;46.24
18784;BME280;9520;50.954;6.968;2024-03-07T02:29:41;101774.28;;;14.34;46.21